Matsuyama Airport
RJOM : now visible

Airfield :











YOU CAN JOIN US ON...

 
LOGIN :

Register | Disclaimer

   EN    FR    IT 

 









Legend :    VFR   Marginal VFR   IFR   Intensive IFR   Very Intensive IFR
Visi :
Ceiling :
>= 8 km
>= 3000ft
5 to 8 km
1000 to 3000 ft
1500m to 5 km
500 to 1000 ft
800 to 1500m
200 to 500 ft
< 800m
< 200 ft
Symbols :   Thunderstorms  Fog  Heavy snow  Heavy precipitations  Wind > 20 kt






- Airport Elevation : 25 ft
- IATA code : MYJ


RJOM - Matsuyama

CURRENT METAR :
  • 290400Z 02018KT 9999 FEW030 SCT/// 14/04 Q1017

EXPIRED METARs :
  • 290300Z 02018KT 9999 FEW025 SCT040 13/04 Q1018
  • 290200Z 02016KT 9999 FEW020 SCT035 12/04 Q1018

TAF TAF RJOM
Valid from the 29 at 00:00 until the 30 at 06:00 UTC


282306Z 2900/3006 02016KT 9999 FEW025 SCT035
BECMG 2908/2910 12005KT
BECMG 3000/3003 34005KT



MET'MAP, your aeronautical weather chart ! - Copyright ORBIFLY December 2007 - Disclaimer

ORBIFLY MET'MAP TEAM :

Programming & Development : Alexandra Zaïnal
Concept & original design : Baudouin d'Aumeries
Assistance for programming : Marc-Olivier Méhu
Technical & hardware support : Manuel Goepfert

Contact : metmap@orbifly.com




SOURCES & CREDITS :

   NOAA       Earth
Advisory